Time;durP1;ratioP1;P1;durP2;ratioP2;P2;SDS_P1;SDS_P2;PMS_P1;PMS_P2;Temp;Humidity;BMP_temperature;BMP_pressure;BME280_temperature;BME280_humidity;BME280_pressure;Samples;Min_cycle;Max_cycle;Signal;HPM_P1;HPM_P2
2024/01/04 00:00:53;;;;;;;10.23;7.17;;;;;;;;;;5056000;28;20193;-72
2024/01/04 00:03:19;;;;;;;8.83;4.20;;;;;;;;;;5055201;28;20257;-70
2024/01/04 00:05:46;;;;;;;11.30;4.23;;;;;;;;;;5054070;28;20257;-72
2024/01/04 00:08:12;;;;;;;8.63;4.80;;;;;;;;;;5054258;28;20195;-72
2024/01/04 00:10:38;;;;;;;8.90;5.47;;;;;;;;;;5054322;28;20181;-70
2024/01/04 00:13:04;;;;;;;9.07;4.60;;;;;;;;;;5054266;28;20552;-72
2024/01/04 00:15:30;;;;;;;15.17;6.40;;;;;;;;;;5054570;28;20179;-72
2024/01/04 00:17:56;;;;;;;9.93;5.53;;;;;;;;;;5036479;28;20202;-73
2024/01/04 00:20:24;;;;;;;9.67;6.03;;;;;;;;;;5054428;28;20261;-73
2024/01/04 00:22:50;;;;;;;13.20;7.27;;;;;;;;;;5054111;28;20190;-72
2024/01/04 00:25:16;;;;;;;9.30;6.23;;;;;;;;;;5053524;28;20175;-71
2024/01/04 00:27:42;;;;;;;11.07;6.63;;;;;;;;;;5056794;28;20214;-74
2024/01/04 00:30:08;;;;;;;11.97;6.73;;;;;;;;;;5039721;28;20189;-71
2024/01/04 00:32:34;;;;;;;13.37;6.93;;;;;;;;;;5039622;28;20202;-72
2024/01/04 00:35:00;;;;;;;12.30;7.10;;;;;;;;;;5057945;28;20178;-73
2024/01/04 00:37:26;;;;;;;14.37;8.07;;;;;;;;;;5057910;28;20210;-73
2024/01/04 00:39:52;;;;;;;10.27;7.10;;;;;;;;;;5057573;28;20261;-72
2024/01/04 00:42:18;;;;;;;10.07;7.37;;;;;;;;;;5057983;28;20179;-71
2024/01/04 00:44:44;;;;;;;18.97;7.93;;;;;;;;;;5039730;28;20186;-74
2024/01/04 00:47:09;;;;;;;14.13;7.50;;;;;;;;;;5056505;28;20286;-74
2024/01/04 00:49:35;;;;;;;17.60;8.77;;;;;;;;;;5056509;28;20640;-72
2024/01/04 00:52:01;;;;;;;14.53;8.37;;;;;;;;;;5039269;28;20175;-73
2024/01/04 00:54:27;;;;;;;10.13;6.07;;;;;;;;;;5056796;28;20656;-73
2024/01/04 00:56:53;;;;;;;10.77;6.43;;;;;;;;;;5056237;28;20782;-74
2024/01/04 00:59:19;;;;;;;13.83;6.30;;;;;;;;;;5057386;28;20214;-70
2024/01/04 01:01:45;;;;;;;9.33;4.00;;;;;;;;;;5057223;28;20232;-70
2024/01/04 01:04:11;;;;;;;5.70;3.20;;;;;;;;;;5039209;28;20186;-72
2024/01/04 01:06:38;;;;;;;5.70;3.30;;;;;;;;;;5057237;28;20217;-73
2024/01/04 01:09:04;;;;;;;3.40;2.40;;;;;;;;;;5058179;28;20258;-73
2024/01/04 01:11:30;;;;;;;3.50;2.50;;;;;;;;;;5059108;28;20695;-71
2024/01/04 01:13:56;;;;;;;2.87;2.33;;;;;;;;;;5059057;28;20174;-73
2024/01/04 01:16:23;;;;;;;3.90;2.20;;;;;;;;;;5057336;28;20238;-72
2024/01/04 01:18:49;;;;;;;4.00;2.17;;;;;;;;;;5057547;28;20210;-74
2024/01/04 01:21:15;;;;;;;3.10;2.20;;;;;;;;;;5057416;28;20244;-72
2024/01/04 01:23:41;;;;;;;6.80;2.57;;;;;;;;;;5057067;28;20182;-73
2024/01/04 01:26:06;;;;;;;4.13;2.40;;;;;;;;;;5056317;28;20564;-73
2024/01/04 01:28:32;;;;;;;3.83;2.53;;;;;;;;;;5056671;28;20257;-73
2024/01/04 01:31:01;;;;;;;4.03;2.43;;;;;;;;;;5038886;28;20235;-74
2024/01/04 01:33:26;;;;;;;6.33;3.03;;;;;;;;;;5056776;28;20177;-73
2024/01/04 01:35:52;;;;;;;3.50;2.70;;;;;;;;;;5056470;28;20201;-73
2024/01/04 01:38:18;;;;;;;6.50;2.80;;;;;;;;;;5055632;28;20225;-73
2024/01/04 01:40:44;;;;;;;4.33;2.50;;;;;;;;;;5038563;28;20179;-72
2024/01/04 01:43:12;;;;;;;3.13;2.50;;;;;;;;;;5055854;28;20726;-72
2024/01/04 01:45:38;;;;;;;6.07;3.00;;;;;;;;;;5055869;28;20265;-73
2024/01/04 01:48:05;;;;;;;4.20;2.83;;;;;;;;;;5038119;28;20526;-71
2024/01/04 01:50:31;;;;;;;4.23;2.33;;;;;;;;;;5056161;28;20205;-73
2024/01/04 01:52:58;;;;;;;7.10;2.63;;;;;;;;;;5056717;28;20260;-71
2024/01/04 01:55:25;;;;;;;3.30;3.00;;;;;;;;;;5057030;28;20606;-73
2024/01/04 01:57:51;;;;;;;10.17;5.30;;;;;;;;;;5056462;28;20281;-71
2024/01/04 02:00:19;;;;;;;5.53;3.30;;;;;;;;;;5056901;28;20181;-72
2024/01/04 02:02:45;;;;;;;5.73;3.40;;;;;;;;;;5056348;28;20202;-72
2024/01/04 02:05:11;;;;;;;8.97;3.13;;;;;;;;;;5056572;28;20248;-73
2024/01/04 02:07:37;;;;;;;5.97;3.60;;;;;;;;;;5055881;28;20238;-73
2024/01/04 02:10:04;;;;;;;7.30;3.87;;;;;;;;;;5038174;28;20194;-73
2024/01/04 02:12:31;;;;;;;9.73;4.10;;;;;;;;;;5055996;28;20201;-69
2024/01/04 02:14:57;;;;;;;10.30;3.70;;;;;;;;;;5037943;28;20217;-72
2024/01/04 02:17:25;;;;;;;3.93;3.37;;;;;;;;;;5056086;28;20198;-73
2024/01/04 02:19:51;;;;;;;6.80;3.10;;;;;;;;;;5055687;28;20554;-74
2024/01/04 02:22:18;;;;;;;5.20;3.63;;;;;;;;;;5037867;28;20315;-72
2024/01/04 02:24:44;;;;;;;5.93;3.63;;;;;;;;;;5055882;28;20266;-73
2024/01/04 02:27:10;;;;;;;4.90;3.10;;;;;;;;;;5056230;28;20245;-72
2024/01/04 02:29:36;;;;;;;9.43;3.53;;;;;;;;;;5056337;28;20178;-73
2024/01/04 02:32:02;;;;;;;8.30;3.63;;;;;;;;;;5056092;28;20174;-72
2024/01/04 02:34:29;;;;;;;6.30;3.60;;;;;;;;;;5056347;28;20189;-73
2024/01/04 02:36:55;;;;;;;7.57;4.37;;;;;;;;;;5055700;28;20605;-70
2024/01/04 02:39:21;;;;;;;6.40;3.97;;;;;;;;;;5056331;28;20190;-72
2024/01/04 02:41:47;;;;;;;9.23;4.43;;;;;;;;;;5055524;28;20178;-73
2024/01/04 02:44:13;;;;;;;10.17;4.50;;;;;;;;;;5056163;28;20182;-72
2024/01/04 02:46:39;;;;;;;3.33;3.03;;;;;;;;;;5055486;28;20294;-72
2024/01/04 02:49:05;;;;;;;7.10;4.43;;;;;;;;;;5056119;28;20681;-74
2024/01/04 02:51:31;;;;;;;6.10;4.20;;;;;;;;;;5054771;28;20639;-73
2024/01/04 02:53:57;;;;;;;6.13;4.27;;;;;;;;;;5055445;28;20580;-74
2024/01/04 02:56:23;;;;;;;7.93;4.43;;;;;;;;;;5055779;28;20582;-73
2024/01/04 02:58:49;;;;;;;7.87;4.10;;;;;;;;;;5037235;28;20263;-75
2024/01/04 03:01:22;;;;;;;9.00;4.07;;;;;;;;;;5038332;28;20186;-70
2024/01/04 03:03:51;;;;;;;5.00;3.07;;;;;;;;;;5055901;28;20183;-73
2024/01/04 03:06:24;;;;;;;5.47;2.70;;;;;;;;;;5037501;28;20202;-72
2024/01/04 03:08:50;;;;;;;4.57;2.50;;;;;;;;;;5037268;28;20239;-73
2024/01/04 03:11:16;;;;;;;5.07;2.87;;;;;;;;;;5055382;28;20175;-73
2024/01/04 03:13:42;;;;;;;4.03;2.13;;;;;;;;;;5054791;28;20248;-74
2024/01/04 03:16:08;;;;;;;3.53;2.67;;;;;;;;;;5054403;28;20588;-73
2024/01/04 03:18:34;;;;;;;3.07;2.50;;;;;;;;;;5054612;28;20178;-72
2024/01/04 03:21:00;;;;;;;4.30;2.40;;;;;;;;;;5054840;28;20257;-74
2024/01/04 03:23:26;;;;;;;3.70;1.83;;;;;;;;;;5054984;28;20174;-72
2024/01/04 03:25:52;;;;;;;3.53;2.10;;;;;;;;;;5061689;28;20189;-72
2024/01/04 03:28:18;;;;;;;4.13;2.40;;;;;;;;;;5064318;28;20195;-73
2024/01/04 03:30:44;;;;;;;5.40;2.23;;;;;;;;;;5056659;28;20178;-74
2024/01/04 03:33:10;;;;;;;4.60;2.40;;;;;;;;;;5055039;28;20194;-75
2024/01/04 03:35:36;;;;;;;4.63;2.27;;;;;;;;;;5036851;28;20549;-65
2024/01/04 03:38:02;;;;;;;6.73;2.50;;;;;;;;;;5053770;28;20221;-66
2024/01/04 03:40:28;;;;;;;7.13;2.73;;;;;;;;;;5053851;28;20181;-68
2024/01/04 03:42:57;;;;;;;5.17;3.17;;;;;;;;;;5053391;28;20185;-67
2024/01/04 03:45:23;;;;;;;6.63;2.67;;;;;;;;;;5035593;28;20240;-65
2024/01/04 03:47:49;;;;;;;4.53;2.10;;;;;;;;;;5035764;28;20217;-65
2024/01/04 03:50:15;;;;;;;4.63;2.20;;;;;;;;;;5054654;28;20228;-66
2024/01/04 03:52:41;;;;;;;5.30;1.90;;;;;;;;;;5035823;28;20175;-68
2024/01/04 03:55:08;;;;;;;2.13;1.40;;;;;;;;;;5054045;28;20174;-67
2024/01/04 03:57:34;;;;;;;3.80;1.60;;;;;;;;;;5053643;28;20259;-68
2024/01/04 04:00:01;;;;;;;4.40;1.40;;;;;;;;;;5053247;28;20193;-67
2024/01/04 04:02:27;;;;;;;3.97;2.13;;;;;;;;;;5055577;28;20179;-68
2024/01/04 04:04:56;;;;;;;6.37;1.70;;;;;;;;;;5057631;28;20185;-66
2024/01/04 04:07:22;;;;;;;1.70;1.50;;;;;;;;;;5039245;28;20295;-67
2024/01/04 04:09:48;;;;;;;2.60;2.40;;;;;;;;;;5039309;28;20183;-67
2024/01/04 04:12:13;;;;;;;3.70;2.13;;;;;;;;;;5056890;28;20178;-66
2024/01/04 04:14:41;;;;;;;3.57;2.30;;;;;;;;;;5057727;28;20171;-68
2024/01/04 04:17:07;;;;;;;7.27;2.50;;;;;;;;;;5039590;28;20253;-67
2024/01/04 04:19:33;;;;;;;4.50;2.40;;;;;;;;;;5039762;28;20193;-67
2024/01/04 04:21:59;;;;;;;4.33;2.90;;;;;;;;;;5058589;28;20180;-67
2024/01/04 04:24:25;;;;;;;6.30;3.23;;;;;;;;;;5057242;28;20576;-68
2024/01/04 04:26:51;;;;;;;10.47;5.60;;;;;;;;;;5056796;28;20274;-67
2024/01/04 04:29:17;;;;;;;10.70;6.03;;;;;;;;;;5039880;28;20645;-65
2024/01/04 04:31:43;;;;;;;7.07;4.97;;;;;;;;;;5057006;28;20312;-65
2024/01/04 04:34:09;;;;;;;9.03;5.20;;;;;;;;;;5039745;28;20705;-65
2024/01/04 04:36:35;;;;;;;6.90;4.93;;;;;;;;;;5057324;28;20214;-68
2024/01/04 04:39:02;;;;;;;8.63;5.17;;;;;;;;;;5056974;28;20478;-69
2024/01/04 04:41:28;;;;;;;12.27;4.90;;;;;;;;;;5055996;28;20181;-69
2024/01/04 04:43:54;;;;;;;13.00;5.70;;;;;;;;;;5055985;28;20284;-68
2024/01/04 04:46:20;;;;;;;9.97;6.10;;;;;;;;;;5056509;28;20688;-67
2024/01/04 04:48:46;;;;;;;11.13;5.20;;;;;;;;;;5056555;28;20488;-68
2024/01/04 04:51:12;;;;;;;16.90;6.07;;;;;;;;;;5039300;28;20185;-66
2024/01/04 04:53:38;;;;;;;12.47;6.30;;;;;;;;;;5055989;28;20706;-66
2024/01/04 04:56:04;;;;;;;13.47;5.23;;;;;;;;;;5056579;28;20220;-67
2024/01/04 04:58:30;;;;;;;11.30;4.03;;;;;;;;;;5056263;28;20198;-67
2024/01/04 05:00:56;;;;;;;14.10;5.13;;;;;;;;;;5038829;28;20177;-67
2024/01/04 05:03:23;;;;;;;12.43;4.73;;;;;;;;;;5056912;28;20175;-66
2024/01/04 05:05:49;;;;;;;6.23;4.37;;;;;;;;;;5056801;28;20174;-67
2024/01/04 05:08:15;;;;;;;14.60;4.70;;;;;;;;;;5056735;28;20190;-67
2024/01/04 05:10:41;;;;;;;14.33;5.07;;;;;;;;;;5039158;28;20236;-66
2024/01/04 05:13:07;;;;;;;6.27;4.43;;;;;;;;;;5055549;28;20584;-67
2024/01/04 05:15:34;;;;;;;10.33;5.30;;;;;;;;;;5056181;28;20556;-67
2024/01/04 05:18:00;;;;;;;12.97;5.47;;;;;;;;;;5056460;28;20696;-67
2024/01/04 05:20:26;;;;;;;10.57;5.70;;;;;;;;;;5055712;28;20175;-68
2024/01/04 05:22:52;;;;;;;13.03;6.10;;;;;;;;;;5054861;28;20576;-67
2024/01/04 05:25:18;;;;;;;13.50;5.60;;;;;;;;;;5055004;28;20181;-67
2024/01/04 05:27:44;;;;;;;13.67;6.10;;;;;;;;;;5036637;28;20214;-67
2024/01/04 05:30:10;;;;;;;11.33;6.13;;;;;;;;;;5054672;28;20174;-68
2024/01/04 05:32:36;;;;;;;12.60;5.17;;;;;;;;;;5056036;28;20243;-67
2024/01/04 05:35:02;;;;;;;5.17;3.10;;;;;;;;;;5055780;28;20182;-67
2024/01/04 05:37:28;;;;;;;7.07;2.90;;;;;;;;;;5055677;28;20220;-66
2024/01/04 05:39:54;;;;;;;6.43;2.40;;;;;;;;;;5056490;28;20202;-67
2024/01/04 05:42:20;;;;;;;2.10;1.90;;;;;;;;;;5039142;28;20183;-66
2024/01/04 05:44:46;;;;;;;4.33;2.20;;;;;;;;;;5056034;28;20174;-67
2024/01/04 05:47:12;;;;;;;4.93;2.20;;;;;;;;;;5056430;28;20293;-67
2024/01/04 05:49:38;;;;;;;4.13;2.33;;;;;;;;;;5038224;28;20269;-67
2024/01/04 05:52:04;;;;;;;5.40;2.47;;;;;;;;;;5055686;28;20210;-68
2024/01/04 05:54:31;;;;;;;5.30;2.60;;;;;;;;;;5055745;28;20251;-68
2024/01/04 05:56:57;;;;;;;8.60;3.73;;;;;;;;;;5055696;28;20285;-68
2024/01/04 05:59:24;;;;;;;5.93;4.03;;;;;;;;;;5055386;28;20213;-67
2024/01/04 06:01:50;;;;;;;7.77;4.77;;;;;;;;;;5036985;28;20186;-68
2024/01/04 06:04:16;;;;;;;9.00;5.43;;;;;;;;;;5055015;28;20181;-67
2024/01/04 06:06:42;;;;;;;10.80;6.50;;;;;;;;;;5054180;28;20692;-68
2024/01/04 06:09:08;;;;;;;16.93;7.83;;;;;;;;;;5054539;28;20178;-67
2024/01/04 06:11:38;;;;;;;14.37;8.37;;;;;;;;;;5055207;28;20185;-67
2024/01/04 06:14:04;;;;;;;18.33;9.13;;;;;;;;;;5054398;28;20205;-68
2024/01/04 06:16:29;;;;;;;15.97;8.47;;;;;;;;;;5054185;28;20198;-68
2024/01/04 06:18:55;;;;;;;16.70;10.70;;;;;;;;;;5054675;28;20179;-68
2024/01/04 06:21:21;;;;;;;26.63;12.30;;;;;;;;;;5054386;28;20657;-66
2024/01/04 06:23:47;;;;;;;27.20;13.73;;;;;;;;;;5054739;28;20240;-67
2024/01/04 06:26:20;;;;;;;17.33;11.83;;;;;;;;;;5055096;28;20261;-67
2024/01/04 06:28:46;;;;;;;24.00;11.40;;;;;;;;;;5055213;28;20261;-66
2024/01/04 06:31:12;;;;;;;17.97;10.00;;;;;;;;;;5037136;28;20225;-67
2024/01/04 06:33:38;;;;;;;17.53;12.17;;;;;;;;;;5036758;28;20732;-67
2024/01/04 06:36:05;;;;;;;17.07;12.17;;;;;;;;;;5054607;28;20216;-67
2024/01/04 06:38:32;;;;;;;17.93;12.17;;;;;;;;;;5054572;28;20216;-68
2024/01/04 06:40:58;;;;;;;14.70;10.53;;;;;;;;;;5037312;28;20214;-66
2024/01/04 06:43:25;;;;;;;15.20;11.47;;;;;;;;;;5055072;28;20190;-67
2024/01/04 06:45:51;;;;;;;18.50;12.23;;;;;;;;;;5054990;28;20183;-67
2024/01/04 06:48:17;;;;;;;20.20;12.53;;;;;;;;;;5054687;28;20221;-67
2024/01/04 06:50:46;;;;;;;18.43;12.03;;;;;;;;;;5054886;28;20216;-67
2024/01/04 06:53:14;;;;;;;18.70;10.23;;;;;;;;;;5054700;28;20209;-68
2024/01/04 06:55:40;;;;;;;15.53;11.43;;;;;;;;;;5054937;28;20170;-68
2024/01/04 06:58:08;;;;;;;15.00;10.47;;;;;;;;;;5054684;28;20729;-67
2024/01/04 07:00:34;;;;;;;14.43;10.43;;;;;;;;;;5054491;28;20216;-68
2024/01/04 07:03:00;;;;;;;14.40;10.60;;;;;;;;;;5054533;28;20175;-66
2024/01/04 07:05:26;;;;;;;12.60;9.57;;;;;;;;;;5054570;28;20178;-67
2024/01/04 07:07:52;;;;;;;13.87;9.60;;;;;;;;;;5054032;28;20220;-66
2024/01/04 07:10:18;;;;;;;12.67;9.00;;;;;;;;;;5053966;28;20183;-68
2024/01/04 07:12:44;;;;;;;15.03;8.40;;;;;;;;;;5054861;28;20186;-72
2024/01/04 07:15:10;;;;;;;7.90;6.20;;;;;;;;;;5054810;28;20213;-71
2024/01/04 07:17:36;;;;;;;9.40;7.50;;;;;;;;;;5055213;28;20202;-75
2024/01/04 07:20:03;;;;;;;12.50;7.00;;;;;;;;;;5055605;28;20178;-72
2024/01/04 07:22:29;;;;;;;10.67;6.20;;;;;;;;;;5054177;28;20175;-73
2024/01/04 07:24:58;;;;;;;8.77;5.97;;;;;;;;;;5053790;28;20181;-71
2024/01/04 07:27:24;;;;;;;11.37;6.60;;;;;;;;;;5036395;28;20376;-73
2024/01/04 07:29:50;;;;;;;8.40;6.13;;;;;;;;;;5054758;28;20182;-71
2024/01/04 07:32:18;;;;;;;14.87;6.40;;;;;;;;;;5054366;28;20178;-71
2024/01/04 07:34:44;;;;;;;9.67;5.73;;;;;;;;;;5054395;28;20177;-73
2024/01/04 07:37:11;;;;;;;11.57;7.13;;;;;;;;;;5055352;28;20691;-74
2024/01/04 07:39:37;;;;;;;10.00;6.50;;;;;;;;;;5057536;28;20178;-74
2024/01/04 07:42:03;;;;;;;16.13;11.80;;;;;;;;;;5058110;28;20265;-74
2024/01/04 07:44:30;;;;;;;12.23;8.33;;;;;;;;;;5057954;28;20542;-72
2024/01/04 07:46:56;;;;;;;25.67;16.00;;;;;;;;;;5058106;28;20216;-71
2024/01/04 07:49:22;;;;;;;19.33;9.63;;;;;;;;;;5057664;28;20178;-71
2024/01/04 07:51:48;;;;;;;13.27;8.07;;;;;;;;;;5058139;28;20539;-74
2024/01/04 07:54:14;;;;;;;11.53;7.37;;;;;;;;;;5057737;28;20178;-73
2024/01/04 07:56:40;;;;;;;16.23;10.70;;;;;;;;;;5058415;28;20260;-72
2024/01/04 07:59:06;;;;;;;17.03;9.23;;;;;;;;;;5066286;28;20178;-71
2024/01/04 08:01:32;;;;;;;10.33;7.37;;;;;;;;;;5065792;28;20623;-74
2024/01/04 08:03:59;;;;;;;13.67;9.10;;;;;;;;;;5059060;28;20182;-72
2024/01/04 08:06:25;;;;;;;13.67;9.37;;;;;;;;;;5059341;28;20270;-72
2024/01/04 08:08:52;;;;;;;13.73;10.03;;;;;;;;;;5058574;28;20716;-73
2024/01/04 08:11:18;;;;;;;8.73;6.37;;;;;;;;;;5059362;28;20216;-74
2024/01/04 08:13:44;;;;;;;13.97;9.33;;;;;;;;;;5058523;28;20174;-74
2024/01/04 08:16:10;;;;;;;12.20;7.87;;;;;;;;;;5058386;28;20185;-72
2024/01/04 08:18:36;;;;;;;14.60;7.30;;;;;;;;;;5058602;28;20641;-71
2024/01/04 08:21:02;;;;;;;8.80;5.47;;;;;;;;;;5058345;28;20244;-71
2024/01/04 08:23:28;;;;;;;14.33;7.10;;;;;;;;;;5057154;28;20170;-73
2024/01/04 08:25:56;;;;;;;10.70;5.77;;;;;;;;;;5056107;28;20274;-72
2024/01/04 08:28:22;;;;;;;6.73;5.00;;;;;;;;;;5056793;28;20625;-73
2024/01/04 08:30:48;;;;;;;10.43;6.73;;;;;;;;;;5039766;28;20178;-73
2024/01/04 08:33:14;;;;;;;8.17;5.97;;;;;;;;;;5057668;28;20175;-74
2024/01/04 08:35:40;;;;;;;10.00;5.43;;;;;;;;;;5057640;28;20189;-74
2024/01/04 08:38:06;;;;;;;10.07;6.43;;;;;;;;;;5056960;28;20214;-73
2024/01/04 08:40:36;;;;;;;10.40;6.93;;;;;;;;;;5057653;28;20206;-72
2024/01/04 08:43:03;;;;;;;8.53;6.33;;;;;;;;;;5040284;28;20183;-75
2024/01/04 08:45:29;;;;;;;11.70;6.27;;;;;;;;;;5038986;28;20566;-73
2024/01/04 08:47:55;;;;;;;9.83;6.87;;;;;;;;;;5055445;28;20209;-74
2024/01/04 08:50:22;;;;;;;15.93;7.90;;;;;;;;;;5056908;28;20238;-73
2024/01/04 08:52:47;;;;;;;14.17;8.30;;;;;;;;;;5056306;28;20540;-73
2024/01/04 08:55:14;;;;;;;15.53;9.80;;;;;;;;;;5056249;28;20205;-66
2024/01/04 08:57:40;;;;;;;14.37;9.23;;;;;;;;;;5055601;28;20720;-65
2024/01/04 09:00:06;;;;;;;12.13;8.37;;;;;;;;;;5055621;28;20210;-65
2024/01/04 09:02:32;;;;;;;11.73;8.50;;;;;;;;;;5037176;28;20674;-66
2024/01/04 09:04:58;;;;;;;15.17;9.10;;;;;;;;;;5055350;28;20186;-64
2024/01/04 09:07:26;;;;;;;12.03;10.63;;;;;;;;;;5055509;28;20236;-65
2024/01/04 09:09:52;;;;;;;14.17;8.67;;;;;;;;;;5037202;28;20182;-65
2024/01/04 09:12:19;;;;;;;14.47;9.10;;;;;;;;;;5056004;28;20175;-66
2024/01/04 09:14:46;;;;;;;16.07;9.37;;;;;;;;;;5056389;28;20175;-66
2024/01/04 09:17:12;;;;;;;13.77;10.63;;;;;;;;;;5038080;28;20217;-66
2024/01/04 09:19:40;;;;;;;15.10;9.73;;;;;;;;;;5055830;28;20182;-66
2024/01/04 09:22:07;;;;;;;15.27;10.73;;;;;;;;;;5055891;28;20189;-67
2024/01/04 09:24:33;;;;;;;18.77;11.97;;;;;;;;;;5055230;28;20191;-65
2024/01/04 09:26:59;;;;;;;15.93;10.77;;;;;;;;;;5054911;28;20211;-65
2024/01/04 09:29:25;;;;;;;15.23;10.67;;;;;;;;;;5055994;28;20636;-66
2024/01/04 09:31:51;;;;;;;12.70;9.77;;;;;;;;;;5055693;28;20178;-66
2024/01/04 09:34:17;;;;;;;15.97;9.67;;;;;;;;;;5055916;28;20224;-64
2024/01/04 09:36:43;;;;;;;15.80;10.27;;;;;;;;;;5055166;28;20321;-65
2024/01/04 09:39:13;;;;;;;15.43;9.50;;;;;;;;;;5055779;28;20177;-65
2024/01/04 09:41:44;;;;;;;16.33;8.13;;;;;;;;;;5055154;28;20171;-66
2024/01/04 09:44:11;;;;;;;12.93;8.53;;;;;;;;;;5054686;28;20174;-66
2024/01/04 09:46:38;;;;;;;15.87;9.80;;;;;;;;;;5054758;28;20221;-66
2024/01/04 09:49:04;;;;;;;17.57;9.80;;;;;;;;;;5055143;28;20270;-64
2024/01/04 09:51:34;;;;;;;9.90;7.67;;;;;;;;;;5055522;28;20193;-65
2024/01/04 09:54:00;;;;;;;9.93;7.63;;;;;;;;;;5055468;28;20189;-65
2024/01/04 09:56:27;;;;;;;12.17;7.10;;;;;;;;;;5037451;28;20193;-65
2024/01/04 09:58:53;;;;;;;11.00;6.97;;;;;;;;;;5055252;28;20182;-64
2024/01/04 10:01:21;;;;;;;10.50;7.10;;;;;;;;;;5054770;28;20232;-65
2024/01/04 10:03:48;;;;;;;11.60;7.27;;;;;;;;;;5055500;28;20715;-65
2024/01/04 10:06:19;;;;;;;11.50;7.47;;;;;;;;;;5054862;28;20569;-65
2024/01/04 10:08:47;;;;;;;11.90;6.60;;;;;;;;;;5036365;28;20181;-66
2024/01/04 10:11:16;;;;;;;11.70;7.43;;;;;;;;;;5054301;28;20205;-66
2024/01/04 10:13:43;;;;;;;11.87;7.33;;;;;;;;;;5035761;28;20182;-66
2024/01/04 10:16:11;;;;;;;11.53;7.00;;;;;;;;;;5054606;28;20171;-67
2024/01/04 10:18:37;;;;;;;10.20;7.13;;;;;;;;;;5061896;28;20194;-66
2024/01/04 10:21:04;;;;;;;20.60;8.77;;;;;;;;;;5060412;28;20174;-66
2024/01/04 10:23:30;;;;;;;16.37;8.27;;;;;;;;;;5055109;28;20174;-64
2024/01/04 10:26:27;;;;;;;12.67;7.13;;;;;;;;;;5035947;28;20752;-65
2024/01/04 10:28:56;;;;;;;11.30;6.20;;;;;;;;;;5019851;28;20197;-66
2024/01/04 10:31:22;;;;;;;11.73;6.40;;;;;;;;;;5053788;28;20270;-66
2024/01/04 10:33:55;;;;;;;11.77;8.70;;;;;;;;;;5035393;28;20182;-65
2024/01/04 10:36:22;;;;;;;6.97;6.27;;;;;;;;;;5053251;28;20182;-66
2024/01/04 10:38:48;;;;;;;11.90;6.30;;;;;;;;;;5053488;28;20688;-66
2024/01/04 10:41:19;;;;;;;9.90;8.27;;;;;;;;;;5053157;28;20206;-67
2024/01/04 10:43:45;;;;;;;10.47;6.43;;;;;;;;;;5035309;28;20166;-66
2024/01/04 10:46:12;;;;;;;10.10;5.97;;;;;;;;;;5053566;28;20193;-66
2024/01/04 10:48:39;;;;;;;6.20;5.60;;;;;;;;;;5053068;28;20181;-66
2024/01/04 10:51:08;;;;;;;8.07;5.07;;;;;;;;;;5053102;28;20183;-64
2024/01/04 10:53:37;;;;;;;6.93;4.77;;;;;;;;;;5052957;28;20174;-66
2024/01/04 10:56:04;;;;;;;6.50;4.77;;;;;;;;;;5035115;28;20178;-67
2024/01/04 10:58:33;;;;;;;5.57;4.47;;;;;;;;;;5053070;28;20195;-66
2024/01/04 11:00:59;;;;;;;7.30;4.40;;;;;;;;;;5053024;28;20171;-66
2024/01/04 11:03:26;;;;;;;8.40;5.13;;;;;;;;;;5034798;28;20277;-66
2024/01/04 11:05:52;;;;;;;5.07;4.03;;;;;;;;;;5034755;28;20178;-65
2024/01/04 11:08:18;;;;;;;3.77;3.43;;;;;;;;;;5052478;28;20364;-66
2024/01/04 11:10:45;;;;;;;4.00;3.60;;;;;;;;;;5052748;28;20170;-66
2024/01/04 11:13:11;;;;;;;6.40;3.50;;;;;;;;;;5052287;28;20186;-66
2024/01/04 11:15:37;;;;;;;3.43;3.00;;;;;;;;;;5053139;28;20170;-66
2024/01/04 11:18:12;;;;;;;4.57;2.73;;;;;;;;;;5052771;28;20281;-66
2024/01/04 11:20:59;;;;;;;3.67;2.80;;;;;;;;;;5052922;28;20184;-67
2024/01/04 11:23:35;;;;;;;4.40;2.97;;;;;;;;;;5052728;28;20171;-66
2024/01/04 11:26:19;;;;;;;4.67;3.10;;;;;;;;;;5035043;28;20223;-67
2024/01/04 11:28:47;;;;;;;3.47;2.83;;;;;;;;;;5052810;28;20171;-66
2024/01/04 11:31:13;;;;;;;4.17;2.53;;;;;;;;;;5052859;28;20174;-67
2024/01/04 11:33:43;;;;;;;6.07;2.90;;;;;;;;;;5053194;28;20544;-67
2024/01/04 11:36:09;;;;;;;3.57;2.60;;;;;;;;;;5034964;28;20190;-67
2024/01/04 11:38:36;;;;;;;2.57;2.30;;;;;;;;;;5052689;28;20289;-66
2024/01/04 11:41:02;;;;;;;3.20;2.27;;;;;;;;;;5053436;28;20170;-65
2024/01/04 11:43:35;;;;;;;4.03;2.57;;;;;;;;;;5035998;28;20179;-64
2024/01/04 11:46:01;;;;;;;2.53;2.17;;;;;;;;;;5053254;28;20676;-67
2024/01/04 11:48:30;;;;;;;3.80;2.40;;;;;;;;;;5052584;28;20239;-67
2024/01/04 11:50:58;;;;;;;5.27;2.90;;;;;;;;;;5052410;28;20185;-67
2024/01/04 11:53:27;;;;;;;3.57;2.60;;;;;;;;;;5052538;28;20175;-66
2024/01/04 11:56:03;;;;;;;3.20;2.90;;;;;;;;;;5052451;28;20185;-66
2024/01/04 11:58:29;;;;;;;4.50;3.33;;;;;;;;;;5034535;28;20209;-66
2024/01/04 12:00:57;;;;;;;3.70;3.37;;;;;;;;;;5052280;28;20178;-67
2024/01/04 12:03:27;;;;;;;4.70;3.37;;;;;;;;;;5052562;28;20186;-67
2024/01/04 12:05:56;;;;;;;4.03;2.90;;;;;;;;;;5052662;28;20641;-67
2024/01/04 12:08:25;;;;;;;3.30;3.00;;;;;;;;;;5052292;28;20213;-67
2024/01/04 12:10:53;;;;;;;5.57;3.70;;;;;;;;;;5052321;28;20711;-66
2024/01/04 12:13:19;;;;;;;5.07;3.30;;;;;;;;;;5052420;28;20178;-66
2024/01/04 12:15:45;;;;;;;5.13;3.93;;;;;;;;;;5034491;28;20258;-66
2024/01/04 12:18:12;;;;;;;4.77;3.37;;;;;;;;;;5052348;28;20750;-67
2024/01/04 12:20:38;;;;;;;4.43;3.37;;;;;;;;;;5052457;28;20683;-66
2024/01/04 12:23:06;;;;;;;4.53;3.33;;;;;;;;;;5053726;28;20174;-67
2024/01/04 12:25:32;;;;;;;4.50;3.20;;;;;;;;;;5038429;28;20668;-66
2024/01/04 12:27:58;;;;;;;3.33;3.03;;;;;;;;;;5056398;28;20218;-66
2024/01/04 12:30:25;;;;;;;6.00;3.37;;;;;;;;;;5038035;28;20206;-66
2024/01/04 12:32:51;;;;;;;6.63;3.17;;;;;;;;;;5037820;28;20186;-65
2024/01/04 12:35:17;;;;;;;4.00;2.93;;;;;;;;;;5037703;28;20645;-66
2024/01/04 12:37:44;;;;;;;4.87;3.13;;;;;;;;;;5042105;28;20214;-66
2024/01/04 12:40:12;;;;;;;4.73;3.23;;;;;;;;;;5061077;28;20182;-66
2024/01/04 12:42:38;;;;;;;4.53;3.00;;;;;;;;;;5058197;28;20583;-65
2024/01/04 12:45:08;;;;;;;5.17;2.77;;;;;;;;;;5038308;28;20186;-66
2024/01/04 12:47:35;;;;;;;5.23;3.27;;;;;;;;;;5055793;28;20206;-66
2024/01/04 12:50:01;;;;;;;6.30;2.87;;;;;;;;;;5055908;28;20592;-66
2024/01/04 12:52:27;;;;;;;2.77;2.57;;;;;;;;;;5055525;28;20171;-66
2024/01/04 12:54:53;;;;;;;3.20;2.90;;;;;;;;;;5037433;28;20181;-66
2024/01/04 12:57:18;;;;;;;5.43;3.43;;;;;;;;;;5055190;28;20298;-66
2024/01/04 12:59:46;;;;;;;4.73;2.77;;;;;;;;;;5055028;28;20182;-67
2024/01/04 13:02:12;;;;;;;3.90;2.37;;;;;;;;;;5054972;28;20177;-66
2024/01/04 13:04:39;;;;;;;3.63;2.60;;;;;;;;;;5055064;28;20179;-66
2024/01/04 13:07:05;;;;;;;3.97;2.57;;;;;;;;;;5055824;28;20288;-68
2024/01/04 13:09:37;;;;;;;2.33;2.10;;;;;;;;;;5037678;28;20197;-66
2024/01/04 13:12:03;;;;;;;3.07;2.60;;;;;;;;;;5055238;28;20166;-66
2024/01/04 13:14:29;;;;;;;2.63;2.00;;;;;;;;;;5055500;28;20648;-66
2024/01/04 13:16:55;;;;;;;2.80;2.00;;;;;;;;;;5055530;28;20271;-67
2024/01/04 13:19:21;;;;;;;5.20;2.60;;;;;;;;;;5055115;28;20691;-66
2024/01/04 13:21:47;;;;;;;5.17;2.80;;;;;;;;;;5037223;28;20193;-65
2024/01/04 13:24:13;;;;;;;4.77;2.77;;;;;;;;;;5055166;28;20174;-66
2024/01/04 13:26:39;;;;;;;5.10;2.70;;;;;;;;;;5054699;28;20652;-65
2024/01/04 13:29:08;;;;;;;5.20;3.00;;;;;;;;;;5054834;28;20186;-66
2024/01/04 13:31:34;;;;;;;5.93;3.53;;;;;;;;;;5036836;28;20178;-66
2024/01/04 13:33:59;;;;;;;7.53;3.43;;;;;;;;;;5054745;28;20190;-65
2024/01/04 13:36:25;;;;;;;8.70;3.47;;;;;;;;;;5054732;28;20595;-67
2024/01/04 13:38:51;;;;;;;6.67;3.73;;;;;;;;;;5055566;28;20171;-66
2024/01/04 13:41:18;;;;;;;5.93;4.00;;;;;;;;;;5054778;28;20178;-66
2024/01/04 13:43:44;;;;;;;8.23;4.70;;;;;;;;;;5054855;28;20178;-67
2024/01/04 13:46:10;;;;;;;7.90;4.80;;;;;;;;;;5054944;28;20175;-66
2024/01/04 13:48:36;;;;;;;11.80;4.73;;;;;;;;;;5036769;28;20183;-66
2024/01/04 13:51:03;;;;;;;10.30;4.97;;;;;;;;;;5054683;28;20185;-66
2024/01/04 13:53:30;;;;;;;8.70;4.83;;;;;;;;;;5054821;28;20217;-65
2024/01/04 13:55:57;;;;;;;10.43;5.57;;;;;;;;;;5054513;28;20254;-64
2024/01/04 13:58:23;;;;;;;12.17;7.40;;;;;;;;;;5054378;28;20202;-67
2024/01/04 14:00:49;;;;;;;10.87;5.53;;;;;;;;;;5054427;28;20202;-67
2024/01/04 14:03:15;;;;;;;22.93;11.10;;;;;;;;;;5054238;28;20181;-67
2024/01/04 14:05:41;;;;;;;17.13;9.73;;;;;;;;;;5036217;28;20214;-66
2024/01/04 14:08:07;;;;;;;34.80;21.73;;;;;;;;;;5053894;28;20214;-67
2024/01/04 14:10:33;;;;;;;22.40;13.20;;;;;;;;;;5054214;28;20266;-66
2024/01/04 14:12:59;;;;;;;13.03;7.80;;;;;;;;;;5036643;28;20174;-70
2024/01/04 14:15:25;;;;;;;22.40;16.10;;;;;;;;;;5054261;28;20220;-68
2024/01/04 14:17:52;;;;;;;12.00;8.00;;;;;;;;;;5054323;28;20339;-69
2024/01/04 14:20:20;;;;;;;16.97;9.13;;;;;;;;;;5053865;28;20175;-68
2024/01/04 14:22:46;;;;;;;25.43;13.13;;;;;;;;;;5055215;28;20542;-66
2024/01/04 14:25:12;;;;;;;18.53;9.77;;;;;;;;;;5036939;28;20182;-66
2024/01/04 14:27:39;;;;;;;20.43;9.07;;;;;;;;;;5053480;28;20218;-67
2024/01/04 14:30:05;;;;;;;22.67;11.77;;;;;;;;;;5053925;28;20198;-66
2024/01/04 14:32:32;;;;;;;34.07;24.47;;;;;;;;;;5053895;28;20228;-66